Home > Products > Valid Products > TAF

000
FTUS43 KFSD 311720
TAFFSD
TAF
KFSD 311720Z 3118/0118 18014G22KT P6SM FEW200
     FM312300 17009KT P6SM SCT200
     FM010500 17004KT P6SM BKN150
      TEMPO 0111/0114 4SM BR FEW003=



000
FTUS43 KFSD 311720
TAFSUX
TAF
KSUX 311720Z 3118/0118 18013G19KT P6SM FEW200
     FM010000 15006KT P6SM SCT200
     FM010800 12004KT P6SM FEW150 BKN200
      TEMPO 0111/0114 4SM BR FEW003=



000
FTUS43 KFSD 311720
TAFSUX
TAF
KSUX 311720Z 3118/0118 18013G19KT P6SM FEW200
     FM010000 15006KT P6SM SCT200
     FM010800 12004KT P6SM FEW150 BKN200
      TEMPO 0111/0114 4SM BR FEW003=



000
FTUS43 KFSD 311720
TAFHON
TAF
KHON 311720Z 3118/0118 28009KT P6SM SCT150
     FM312000 31012KT P6SM SCT110
     FM010100 VRB05KT P6SM SCT100 BKN150
     FM011500 11009KT P6SM SCT150=



000
FTUS43 KFSD 311337 AAA
TAFSUX
TAF AMD
KSUX 311337Z 3114/0112 13008KT 1/4SM FG BKN002
     FM311430 16009KT 5SM BR SCT002
     FM311500 18011KT P6SM FEW004
     FM311700 18013G19KT P6SM FEW200
     FM010000 15006KT P6SM SCT200
     FM010800 12004KT P6SM FEW150 BKN200
      AMD NOT SKED=



000
FTUS43 KFSD 311337 AAA
TAFSUX
TAF AMD
KSUX 311337Z 3114/0112 13008KT 1/4SM FG BKN002
     FM311430 16009KT 5SM BR SCT002
     FM311500 18011KT P6SM FEW004
     FM311700 18013G19KT P6SM FEW200
     FM010000 15006KT P6SM SCT200
     FM010800 12004KT P6SM FEW150 BKN200
      AMD NOT SKED=



000
FTUS43 KFSD 311337 AAA
TAFSUX
TAF AMD
KSUX 311337Z 3114/0112 13008KT 1/4SM FG BKN002
     FM311430 16009KT 5SM BR SCT002
     FM311500 18011KT P6SM FEW004
     FM311700 18013G19KT P6SM FEW200
     FM010000 15006KT P6SM SCT200
     FM010800 12004KT P6SM FEW150 BKN200
      AMD NOT SKED=



000
FTUS43 KFSD 311120
TAFSUX
TAF
KSUX 311120Z 3112/0112 13008KT 2SM BR SCT003
      TEMPO 3112/3113 1/2SM FG BKN002
     FM311400 16009KT 5SM BR SCT002
     FM311500 18011KT P6SM FEW004
     FM311700 18013G19KT P6SM FEW200
     FM010000 15006KT P6SM SCT200
     FM010800 12004KT P6SM FEW150 BKN200
      AMD NOT SKED=



000
FTUS43 KFSD 311120
TAFSUX
TAF
KSUX 311120Z 3112/0112 13008KT 2SM BR SCT003
      TEMPO 3112/3113 1/2SM FG BKN002
     FM311400 16009KT 5SM BR SCT002
     FM311500 18011KT P6SM FEW004
     FM311700 18013G19KT P6SM FEW200
     FM010000 15006KT P6SM SCT200
     FM010800 12004KT P6SM FEW150 BKN200
      AMD NOT SKED=



000
FTUS43 KFSD 311120
TAFHON
TAF
KHON 311120Z 3112/0112 17013G19KT P6SM FEW200
     FM311600 20012KT P6SM SCT200
     FM311800 25009KT P6SM SCT150
     FM312000 31008KT P6SM SCT110
     FM010100 VRB05KT P6SM SCT100 BKN150=



000
FTUS43 KFSD 311120
TAFSUX
TAF
KSUX 311120Z 3112/0112 13008KT 2SM BR SCT003
      TEMPO 3112/3113 1/2SM FG BKN002
     FM311400 16009KT 5SM BR SCT002
     FM311500 18011KT P6SM FEW004
     FM311700 18013G19KT P6SM FEW200
     FM010000 15006KT P6SM SCT200
     FM010800 12004KT P6SM FEW150 BKN200
      AMD NOT SKED=



000
FTUS43 KFSD 311120
TAFHON
TAF
KHON 311120Z 3112/0112 17013G19KT P6SM FEW200
     FM311600 20012KT P6SM SCT200
     FM311800 25009KT P6SM SCT150
     FM312000 31008KT P6SM SCT110
     FM010100 VRB05KT P6SM SCT100 BKN150=



000
FTUS43 KFSD 311120
TAFFSD
TAF
KFSD 311120Z 3112/0112 18010KT P6SM SCT005 SCT250
      TEMPO 3112/3114 4SM BR
     FM311430 18013G18KT P6SM FEW008
     FM311600 18014G22KT P6SM FEW200
     FM312300 17009KT P6SM SCT200
     FM010500 17004KT P6SM BKN150=



000
FTUS43 KFSD 311120
TAFSUX
TAF
KSUX 311120Z 3112/0112 13008KT 2SM BR SCT003
      TEMPO 3112/3113 1/2SM FG BKN002
     FM311400 16009KT 5SM BR SCT002
     FM311500 18011KT P6SM FEW004
     FM311700 18013G19KT P6SM FEW200
     FM010000 15006KT P6SM SCT200
     FM010800 12004KT P6SM FEW150 BKN200
      AMD NOT SKED=



000
FTUS43 KFSD 311120
TAFFSD
TAF
KFSD 311120Z 3112/0112 18010KT P6SM SCT005 SCT250
      TEMPO 3112/3114 4SM BR
     FM311430 18013G18KT P6SM FEW008
     FM311600 18014G22KT P6SM FEW200
     FM312300 17009KT P6SM SCT200
     FM010500 17004KT P6SM BKN150=



000
FTUS43 KFSD 310918 AAB
TAFFSD
TAF AMD
KFSD 310918Z 3109/0106 18010KT P6SM FEW006 SCT250
      TEMPO 3111/3114 4SM BR
     FM311430 18013G18KT P6SM SCT010 BKN200
     FM311600 18013G20KT P6SM BKN200
     FM312300 17008KT P6SM BKN150=



000
FTUS43 KFSD 310632 AAA
TAFFSD
TAF AMD
KFSD 310632Z 3107/0106 17012KT P6SM SCT007 BKN200
     FM310900 17012KT 4SM BR SCT006
     FM311430 18013G18KT P6SM SCT010 BKN200
     FM311600 18013G20KT P6SM BKN200
     FM312300 17008KT P6SM BKN150=



000
FTUS43 KFSD 310632 AAA
TAFFSD
TAF AMD
KFSD 310632Z 3107/0106 17012KT P6SM SCT007 BKN200
     FM310900 17012KT 4SM BR SCT006
     FM311430 18013G18KT P6SM SCT010 BKN200
     FM311600 18013G20KT P6SM BKN200
     FM312300 17008KT P6SM BKN150=



000
FTUS43 KFSD 310526
TAFSUX
TAF
KSUX 310526Z 3106/0106 13008KT 4SM BR SCT006 BKN200
      TEMPO 3111/3114 1SM BR BKN004
     FM311500 17011KT 6SM BR FEW004 BKN200
     FM311700 18013G19KT P6SM BKN200
     FM010000 15008KT P6SM SCT150
      AMD NOT SKED=



000
FTUS43 KFSD 310526
TAFHON
TAF
KHON 310526Z 3106/0106 16014G21KT P6SM BKN200
     FM311500 18013KT P6SM SCT150
     FM311800 20009KT P6SM BKN150
     FM312100 29007KT P6SM BKN150=



000
FTUS43 KFSD 310526
TAFSUX
TAF
KSUX 310526Z 3106/0106 13008KT 4SM BR SCT006 BKN200
      TEMPO 3111/3114 1SM BR BKN004
     FM311500 17011KT 6SM BR FEW004 BKN200
     FM311700 18013G19KT P6SM BKN200
     FM010000 15008KT P6SM SCT150
      AMD NOT SKED=



000
FTUS43 KFSD 310526
TAFFSD
TAF
KFSD 310526Z 3106/0106 17012KT P6SM SCT007 BKN200
      TEMPO 3106/3109 BKN007
     FM310900 17012KT 4SM BR BKN006
     FM311430 18013G18KT P6SM SCT010 BKN200
     FM311600 18013G20KT P6SM BKN200
     FM312300 17008KT P6SM BKN150=



000
FTUS43 KFSD 310526
TAFSUX
TAF
KSUX 310526Z 3106/0106 13008KT 4SM BR SCT006 BKN200
      TEMPO 3111/3114 1SM BR BKN004
     FM311500 17011KT 6SM BR FEW004 BKN200
     FM311700 18013G19KT P6SM BKN200
     FM010000 15008KT P6SM SCT150
      AMD NOT SKED=



000
FTUS43 KFSD 310335 AAA
TAFFSD
TAF AMD
KFSD 310335Z 3104/3124 17013KT P6SM SCT007
      TEMPO 3104/3108 BKN007
     FM311100 17013KT 4SM BR BKN006
     FM311400 18013G18KT P6SM SKC=



000
FTUS43 KFSD 302334
TAFSUX
TAF
KSUX 302334Z 3100/3124 15008KT 6SM FU BKN200
     FM311100 15008KT 4SM BR SCT007
      TEMPO 3111/3114 2SM BR BKN007
     FM311600 18012G19KT P6SM SKC
      AMD NOT SKED=



000
FTUS43 KFSD 302334
TAFHON
TAF
KHON 302334Z 3100/3124 16013G20KT P6SM SCT200
     FM311500 18013KT P6SM SCT150
     FM312100 24007KT P6SM BKN200=



000
FTUS43 KFSD 302334
TAFFSD
TAF
KFSD 302334Z 3100/3124 17013KT 6SM FU BKN200
     FM311100 17013KT 4SM BR SCT007
     FM311400 18013G18KT P6SM SKC=



000
FTUS43 KFSD 302334
TAFSUX
TAF
KSUX 302334Z 3100/3124 15008KT 6SM FU BKN200
     FM311100 15008KT 4SM BR SCT007
      TEMPO 3111/3114 2SM BR BKN007
     FM311600 18012G19KT P6SM SKC
      AMD NOT SKED=



000
FTUS43 KFSD 302334
TAFSUX
TAF
KSUX 302334Z 3100/3124 15008KT 6SM FU BKN200
     FM311100 15008KT 4SM BR SCT007
      TEMPO 3111/3114 2SM BR BKN007
     FM311600 18012G19KT P6SM SKC
      AMD NOT SKED=



000
FTUS43 KFSD 302334
TAFHON
TAF
KHON 302334Z 3100/3124 16013G20KT P6SM SCT200
     FM311500 18013KT P6SM SCT150
     FM312100 24007KT P6SM BKN200=



000
FTUS43 KFSD 302334
TAFFSD
TAF
KFSD 302334Z 3100/3124 17013KT 6SM FU BKN200
     FM311100 17013KT 4SM BR SCT007
     FM311400 18013G18KT P6SM SKC=



000
FTUS43 KFSD 302334
TAFSUX
TAF
KSUX 302334Z 3100/3124 15008KT 6SM FU BKN200
     FM311100 15008KT 4SM BR SCT007
      TEMPO 3111/3114 2SM BR BKN007
     FM311600 18012G19KT P6SM SKC
      AMD NOT SKED=



000
FTUS43 KFSD 301720
TAFSUX
TAF
KSUX 301720Z 3018/3118 17009KT P6SM SKC
     FM310100 16007KT P6SM SKC
     FM311600 18012G19KT P6SM SKC
      AMD NOT SKED=



000
FTUS43 KFSD 301720
TAFHON
TAF
KHON 301720Z 3018/3118 17015G22KT P6SM FEW250
     FM311500 19012KT P6SM SCT150=



000
FTUS43 KFSD 301720
TAFFSD
TAF
KFSD 301720Z 3018/3118 18013G19KT P6SM FEW250
     FM310100 18011G15KT P6SM SKC
     FM311400 18014G23KT P6SM SKC=



000
FTUS43 KFSD 301639 AAB
TAFFSD
TAF AMD
KFSD 301639Z 3017/3112 18009KT P6SM SCT250
     FM302000 18013G19KT P6SM SKC
     FM310100 18011KT P6SM SKC=



000
FTUS43 KFSD 301639 AAB
TAFFSD
TAF AMD
KFSD 301639Z 3017/3112 18009KT P6SM SCT250
     FM302000 18013G19KT P6SM SKC
     FM310100 18011KT P6SM SKC=



000
FTUS43 KFSD 301525 AAA
TAFFSD
TAF AMD
KFSD 301525Z 3015/3112 18009KT P6SM SCT250
      TEMPO 3015/3017 4SM BR OVC008
     FM302000 18013G19KT P6SM SKC
     FM310100 18011KT P6SM SKC=



000
FTUS43 KFSD 301120
TAFSUX
TAF
KSUX 301120Z 3012/3112 18006KT 4SM BR BKN008
      TEMPO 3012/3015 1SM BR OVC003
     FM301600 17009KT P6SM SKC
     FM310100 16007KT P6SM SKC
      AMD NOT SKED=



000
FTUS43 KFSD 301120
TAFSUX
TAF
KSUX 301120Z 3012/3112 18006KT 4SM BR BKN008
      TEMPO 3012/3015 1SM BR OVC003
     FM301600 17009KT P6SM SKC
     FM310100 16007KT P6SM SKC
      AMD NOT SKED=



000
FTUS43 KFSD 301120
TAFFSD
TAF
KFSD 301120Z 3012/3112 18009KT 4SM BR OVC003
      TEMPO 3012/3013 2SM BR
     FM301500 18010KT P6SM SKC
     FM302000 18013G19KT P6SM SKC
     FM310100 18011KT P6SM SKC=



000
FTUS43 KFSD 301120
TAFSUX
TAF
KSUX 301120Z 3012/3112 18006KT 4SM BR BKN008
      TEMPO 3012/3015 1SM BR OVC003
     FM301600 17009KT P6SM SKC
     FM310100 16007KT P6SM SKC
      AMD NOT SKED=



000
FTUS43 KFSD 301120
TAFHON
TAF
KHON 301120Z 3012/3112 17010KT P6SM SKC
     FM301800 17015G22KT P6SM SKC=



000
FTUS43 KFSD 301120
TAFHON
TAF
KHON 301120Z 3012/3112 17010KT P6SM SKC
     FM301800 17015G22KT P6SM SKC=



000
FTUS43 KFSD 301120
TAFSUX
TAF
KSUX 301120Z 3012/3112 18006KT 4SM BR BKN008
      TEMPO 3012/3015 1SM BR OVC003
     FM301600 17009KT P6SM SKC
     FM310100 16007KT P6SM SKC
      AMD NOT SKED=



000
FTUS43 KFSD 301120
TAFFSD
TAF
KFSD 301120Z 3012/3112 18009KT 4SM BR OVC003
      TEMPO 3012/3013 2SM BR
     FM301500 18010KT P6SM SKC
     FM302000 18013G19KT P6SM SKC
     FM310100 18011KT P6SM SKC=



000
FTUS43 KFSD 300520
TAFHON
TAF
KHON 300520Z 3006/3106 15011KT P6SM SKC
     FM301500 18013G18KT P6SM SKC
     FM301800 18018G26KT P6SM SKC
     FM310100 16013G18KT P6SM SKC=



000
FTUS43 KFSD 300520
TAFFSD
TAF
KFSD 300520Z 3006/3106 18007KT P6SM SCT008
     FM300900 18009KT 4SM BR SCT008
      TEMPO 3011/3013 2SM BR
     FM301600 18013KT P6SM SKC
     FM310100 18010KT P6SM SKC=



000
FTUS43 KFSD 300520
TAFSUX
TAF
KSUX 300520Z 3006/3106 14006KT P6SM SCT015
     FM300700 14004KT 4SM BR BKN010
      TEMPO 3011/3015 1SM BR OVC003
     FM301600 15009KT P6SM FEW006
     FM301800 17011KT P6SM SKC
     FM310100 15008KT P6SM SKC
      AMD NOT SKED=



000
FTUS43 KFSD 300520
TAFSUX
TAF
KSUX 300520Z 3006/3106 14006KT P6SM SCT015
     FM300700 14004KT 4SM BR BKN010
      TEMPO 3011/3015 1SM BR OVC003
     FM301600 15009KT P6SM FEW006
     FM301800 17011KT P6SM SKC
     FM310100 15008KT P6SM SKC
      AMD NOT SKED=



000
FTUS43 KFSD 300520
TAFFSD
TAF
KFSD 300520Z 3006/3106 18007KT P6SM SCT008
     FM300900 18009KT 4SM BR SCT008
      TEMPO 3011/3013 2SM BR
     FM301600 18013KT P6SM SKC
     FM310100 18010KT P6SM SKC=



000
FTUS43 KFSD 300520
TAFSUX
TAF
KSUX 300520Z 3006/3106 14006KT P6SM SCT015
     FM300700 14004KT 4SM BR BKN010
      TEMPO 3011/3015 1SM BR OVC003
     FM301600 15009KT P6SM FEW006
     FM301800 17011KT P6SM SKC
     FM310100 15008KT P6SM SKC
      AMD NOT SKED=



000
FTUS43 KFSD 300520
TAFHON
TAF
KHON 300520Z 3006/3106 15011KT P6SM SKC
     FM301500 18013G18KT P6SM SKC
     FM301800 18018G26KT P6SM SKC
     FM310100 16013G18KT P6SM SKC=



000
FTUS43 KFSD 300520
TAFSUX
TAF
KSUX 300520Z 3006/3106 14006KT P6SM SCT015
     FM300700 14004KT 4SM BR BKN010
      TEMPO 3011/3015 1SM BR OVC003
     FM301600 15009KT P6SM FEW006
     FM301800 17011KT P6SM SKC
     FM310100 15008KT P6SM SKC
      AMD NOT SKED=



000
FTUS43 KFSD 292330
TAFFSD
TAF
KFSD 292330Z 3000/3024 18007KT P6SM SKC
     FM300900 18007KT 4SM BR SKC
      TEMPO 3011/3013 2SM BR
     FM301600 17013KT P6SM SKC=



000
FTUS43 KFSD 292330
TAFHON
TAF
KHON 292330Z 3000/3024 16013KT P6SM SKC
     FM301500 18013G18KT P6SM SKC
     FM301800 18017G25KT P6SM SKC=



000
FTUS43 KFSD 292330
TAFSUX
TAF
KSUX 292330Z 3000/3024 14006KT P6SM SKC
     FM300800 14004KT 3SM BR SKC
      TEMPO 3011/3015 1SM BR OVC003
     FM301600 15009KT P6SM FEW006
     FM301800 17011KT P6SM SKC=



000
FTUS43 KFSD 292330
TAFSUX
TAF
KSUX 292330Z 3000/3024 14006KT P6SM SKC
     FM300800 14004KT 3SM BR SKC
      TEMPO 3011/3015 1SM BR OVC003
     FM301600 15009KT P6SM FEW006
     FM301800 17011KT P6SM SKC=



000
FTUS43 KFSD 292330
TAFFSD
TAF
KFSD 292330Z 3000/3024 18007KT P6SM SKC
     FM300900 18007KT 4SM BR SKC
      TEMPO 3011/3013 2SM BR
     FM301600 17013KT P6SM SKC=



000
FTUS43 KFSD 292330
TAFHON
TAF
KHON 292330Z 3000/3024 16013KT P6SM SKC
     FM301500 18013G18KT P6SM SKC
     FM301800 18017G25KT P6SM SKC=



000
FTUS43 KFSD 292330
TAFSUX
TAF
KSUX 292330Z 3000/3024 14006KT P6SM SKC
     FM300800 14004KT 3SM BR SKC
      TEMPO 3011/3015 1SM BR OVC003
     FM301600 15009KT P6SM FEW006
     FM301800 17011KT P6SM SKC=



000
FTUS43 KFSD 292330
TAFSUX
TAF
KSUX 292330Z 3000/3024 14006KT P6SM SKC
     FM300800 14004KT 3SM BR SKC
      TEMPO 3011/3015 1SM BR OVC003
     FM301600 15009KT P6SM FEW006
     FM301800 17011KT P6SM SKC=



000
FTUS43 KFSD 291720
TAFSUX
TAF
KSUX 291720Z 2918/3018 14004KT P6SM SKC
     FM300800 14004KT 4SM BR SKC
      TEMPO 3011/3015 1SM BR OVC003
     FM301600 15009KT P6SM FEW006=



000
FTUS43 KFSD 291720
TAFSUX
TAF
KSUX 291720Z 2918/3018 14004KT P6SM SKC
     FM300800 14004KT 4SM BR SKC
      TEMPO 3011/3015 1SM BR OVC003
     FM301600 15009KT P6SM FEW006=



000
FTUS43 KFSD 291720
TAFFSD
TAF
KFSD 291720Z 2918/3018 18007KT P6SM SKC
     FM300000 17005KT P6SM SKC
     FM300900 17005KT 4SM BR SKC
     FM301500 17012KT P6SM SKC=



000
FTUS43 KFSD 291720
TAFHON
TAF
KHON 291720Z 2918/3018 17008KT P6SM SKC
     FM301600 18012G18KT P6SM SKC=



000
FTUS43 KFSD 291706 AAB
TAFSUX
TAF AMD
KSUX 291706Z 2917/3012 VRB04KT P6SM OVC010
     FM291900 14004KT P6SM SKC
     FM300900 14004KT 4SM BR SKC=



000
FTUS43 KFSD 291706 AAB
TAFSUX
TAF AMD
KSUX 291706Z 2917/3012 VRB04KT P6SM OVC010
     FM291900 14004KT P6SM SKC
     FM300900 14004KT 4SM BR SKC=



000
FTUS43 KFSD 291706 AAB
TAFSUX
TAF AMD
KSUX 291706Z 2917/3012 VRB04KT P6SM OVC010
     FM291900 14004KT P6SM SKC
     FM300900 14004KT 4SM BR SKC=



000
FTUS43 KFSD 291504 AAA
TAFSUX
TAF AMD
KSUX 291504Z 2915/3012 VRB04KT P6SM BKN007
     FM291700 14004KT P6SM SKC
     FM300900 14004KT 4SM BR SKC=



000
FTUS43 KFSD 291504 AAA
TAFSUX
TAF AMD
KSUX 291504Z 2915/3012 VRB04KT P6SM BKN007
     FM291700 14004KT P6SM SKC
     FM300900 14004KT 4SM BR SKC=



000
FTUS43 KFSD 291504 AAA
TAFSUX
TAF AMD
KSUX 291504Z 2915/3012 VRB04KT P6SM BKN007
     FM291700 14004KT P6SM SKC
     FM300900 14004KT 4SM BR SKC=



000
FTUS43 KFSD 291502 AAA
TAFFSD
TAF AMD
KFSD 291502Z 2915/3012 18007KT P6SM SKC
      TEMPO 2915/2917 BKN006
     FM300000 17005KT P6SM SKC
     FM300900 17005KT 4SM BR SKC=



000
FTUS43 KFSD 291502 AAA
TAFFSD
TAF AMD
KFSD 291502Z 2915/3012 18007KT P6SM SKC
      TEMPO 2915/2917 BKN006
     FM300000 17005KT P6SM SKC
     FM300900 17005KT 4SM BR SKC=



000
FTUS43 KFSD 291120
TAFSUX
TAF
KSUX 291120Z 2912/3012 VRB04KT 4SM BR BKN007
      TEMPO 2912/2914 2SM BR
     FM291600 14004KT P6SM SKC
     FM300900 14004KT 4SM BR SKC=



000
FTUS43 KFSD 291120
TAFFSD
TAF
KFSD 291120Z 2912/3012 VRB02KT 4SM BR SKC
      TEMPO 2912/2914 1SM BR SCT003
     FM291700 18007KT P6SM SKC
     FM300000 17005KT P6SM SKC
     FM300900 17005KT 4SM BR SKC=



000
FTUS43 KFSD 291120
TAFSUX
TAF
KSUX 291120Z 2912/3012 VRB04KT 4SM BR BKN007
      TEMPO 2912/2914 2SM BR
     FM291600 14004KT P6SM SKC
     FM300900 14004KT 4SM BR SKC=



000
FTUS43 KFSD 291120
TAFSUX
TAF
KSUX 291120Z 2912/3012 VRB04KT 4SM BR BKN007
      TEMPO 2912/2914 2SM BR
     FM291600 14004KT P6SM SKC
     FM300900 14004KT 4SM BR SKC=



000
FTUS43 KFSD 291120
TAFHON
TAF
KHON 291120Z 2912/3012 17008KT P6SM SKC
      TEMPO 2912/2913 4SM BR=



000
FTUS43 KFSD 291120
TAFSUX
TAF
KSUX 291120Z 2912/3012 VRB04KT 4SM BR BKN007
      TEMPO 2912/2914 2SM BR
     FM291600 14004KT P6SM SKC
     FM300900 14004KT 4SM BR SKC=



000
FTUS43 KFSD 291120
TAFHON
TAF
KHON 291120Z 2912/3012 17008KT P6SM SKC
      TEMPO 2912/2913 4SM BR=



000
FTUS43 KFSD 291120
TAFFSD
TAF
KFSD 291120Z 2912/3012 VRB02KT 4SM BR SKC
      TEMPO 2912/2914 1SM BR SCT003
     FM291700 18007KT P6SM SKC
     FM300000 17005KT P6SM SKC
     FM300900 17005KT 4SM BR SKC=



000
FTUS43 KFSD 290520
TAFSUX
TAF
KSUX 290520Z 2906/3006 03010KT P6SM OVC010
     FM290800 01006KT P6SM SCT010
      TEMPO 2908/2909 BKN010
     FM291000 36005KT 4SM BR SCT005
      TEMPO 2910/2914 2SM BR
     FM291600 02004KT P6SM SCT025
     FM292100 12006KT P6SM SCT030=



000
FTUS43 KFSD 290520
TAFFSD
TAF
KFSD 290520Z 2906/3006 07004KT P6SM SKC
     FM291000 VRB02KT 4SM BR SKC
      TEMPO 2910/2914 1SM BR SCT005
     FM291600 17006KT P6SM SCT030
     FM292300 17005KT P6SM SKC=



000
FTUS43 KFSD 290520
TAFHON
TAF
KHON 290520Z 2906/3006 15005KT P6SM SKC
      TEMPO 2911/2913 4SM BR
     FM291400 17007KT P6SM SKC
     FM291800 17013KT P6SM SKC=



000
FTUS43 KFSD 290520
TAFSUX
TAF
KSUX 290520Z 2906/3006 03010KT P6SM OVC010
     FM290800 01006KT P6SM SCT010
      TEMPO 2908/2909 BKN010
     FM291000 36005KT 4SM BR SCT005
      TEMPO 2910/2914 2SM BR
     FM291600 02004KT P6SM SCT025
     FM292100 12006KT P6SM SCT030=



000
FTUS43 KFSD 290520
TAFSUX
TAF
KSUX 290520Z 2906/3006 03010KT P6SM OVC010
     FM290800 01006KT P6SM SCT010
      TEMPO 2908/2909 BKN010
     FM291000 36005KT 4SM BR SCT005
      TEMPO 2910/2914 2SM BR
     FM291600 02004KT P6SM SCT025
     FM292100 12006KT P6SM SCT030=



000
FTUS43 KFSD 290520
TAFFSD
TAF
KFSD 290520Z 2906/3006 07004KT P6SM SKC
     FM291000 VRB02KT 4SM BR SKC
      TEMPO 2910/2914 1SM BR SCT005
     FM291600 17006KT P6SM SCT030
     FM292300 17005KT P6SM SKC=



000
FTUS43 KFSD 290520
TAFHON
TAF
KHON 290520Z 2906/3006 15005KT P6SM SKC
      TEMPO 2911/2913 4SM BR
     FM291400 17007KT P6SM SKC
     FM291800 17013KT P6SM SKC=



000
FTUS43 KFSD 290520
TAFSUX
TAF
KSUX 290520Z 2906/3006 03010KT P6SM OVC010
     FM290800 01006KT P6SM SCT010
      TEMPO 2908/2909 BKN010
     FM291000 36005KT 4SM BR SCT005
      TEMPO 2910/2914 2SM BR
     FM291600 02004KT P6SM SCT025
     FM292100 12006KT P6SM SCT030=



000
FTUS43 KFSD 290306 AAA
TAFSUX
TAF AMD
KSUX 290306Z 2903/2924 02010KT P6SM OVC010
     FM290800 36005KT P6SM SCT010
      TEMPO 2908/2909 BKN010
     FM291000 36005KT 4SM BR SCT005
      TEMPO 2910/2914 2SM BR
     FM291600 02004KT P6SM SCT025
     FM292100 10006KT P6SM SCT030=



000
FTUS43 KFSD 282330
TAFFSD
TAF
KFSD 282330Z 2900/2924 09005KT P6SM SCT030 BKN200
      TEMPO 2900/2901 BKN030
     FM290900 VRB02KT 4SM BR SKC
      TEMPO 2910/2914 1SM BR BKN005
     FM291600 17006KT P6SM SCT025=



000
FTUS43 KFSD 282330
TAFSUX
TAF
KSUX 282330Z 2900/2924 01010KT P6SM BKN010
     FM290400 01006KT P6SM SCT012
     FM290900 36005KT 4SM BR SKC
      TEMPO 2910/2914 2SM BR SCT005
     FM291600 02004KT P6SM SCT025
     FM292100 10006KT P6SM SCT030=



000
FTUS43 KFSD 282330
TAFSUX
TAF
KSUX 282330Z 2900/2924 01010KT P6SM BKN010
     FM290400 01006KT P6SM SCT012
     FM290900 36005KT 4SM BR SKC
      TEMPO 2910/2914 2SM BR SCT005
     FM291600 02004KT P6SM SCT025
     FM292100 10006KT P6SM SCT030=



000
FTUS43 KFSD 282330
TAFHON
TAF
KHON 282330Z 2900/2924 13005KT P6SM BKN200
      TEMPO 2911/2913 3SM BR
     FM291300 17007KT P6SM SKC
     FM291800 17013KT P6SM SKC=



000
FTUS43 KFSD 282140 AAA
TAFSUX
TAF AMD
KSUX 282140Z 2822/2918 36012KT P6SM BKN015
     FM282300 33008KT P6SM BKN022
     FM290400 02008KT P6SM FEW035
      TEMPO 2910/2914 2SM BR SCT005=



000
FTUS43 KFSD 282139 AAA
TAFFSD
TAF AMD
KFSD 282139Z 2822/2918 06012KT P6SM BKN030
     FM282300 03005KT P6SM SCT035
     FM290100 VRB03KT P6SM SKC
      TEMPO 2910/2914 1SM BR SCT005=



000
FTUS43 KFSD 282139 AAA
TAFFSD
TAF AMD
KFSD 282139Z 2822/2918 06012KT P6SM BKN030
     FM282300 03005KT P6SM SCT035
     FM290100 VRB03KT P6SM SKC
      TEMPO 2910/2914 1SM BR SCT005=



    US Dept of Commerce
    National Oceanic and Atmospheric Administration
    National Weather Service
    1325 East West Highway
    Silver Spring, MD 20910
    Page Author: NWS Internet Services Team
Disclaimer
Information Quality
Credits
Glossary
Privacy Policy
Freedom of Information Act (FOIA)
About Us
Career Opportunities